createdAt,value
2022-10-05T00:00:00.347Z,6.5
2022-10-05T00:05:00.584Z,7.6
2022-10-05T00:10:00.337Z,2.2
2022-10-05T00:15:00.486Z,6.8
2022-10-05T00:20:00.326Z,2.2
2022-10-05T00:25:00.301Z,1.4
2022-10-05T00:30:00.417Z,2.9
2022-10-05T00:35:00.302Z,5.0
2022-10-05T00:40:00.315Z,6.5
2022-10-05T00:45:00.320Z,5.8
2022-10-05T00:50:00.444Z,7.9
2022-10-05T00:55:00.294Z,11.2
2022-10-05T01:00:00.332Z,6.1
2022-10-05T01:05:00.333Z,4.0
2022-10-05T01:10:00.295Z,4.3
2022-10-05T01:15:00.293Z,5.0
2022-10-05T01:20:00.320Z,4.0
2022-10-05T01:25:00.302Z,1.4
2022-10-05T01:30:00.328Z,4.7
2022-10-05T01:35:00.289Z,0.0
2022-10-05T01:40:00.333Z,2.5
2022-10-05T01:45:00.342Z,2.9
2022-10-05T01:50:00.316Z,0.0
2022-10-05T01:55:00.294Z,0.0
2022-10-05T02:00:00.308Z,0.0
2022-10-05T02:05:03.443Z,0.0
2022-10-05T02:10:00.366Z,0.0
2022-10-05T02:15:00.308Z,0.0
2022-10-05T02:20:00.329Z,0.0
2022-10-05T02:25:00.311Z,0.0
2022-10-05T02:30:00.319Z,0.0
2022-10-05T02:35:00.291Z,0.0
2022-10-05T02:40:00.308Z,0.0
2022-10-05T02:45:00.328Z,0.0
2022-10-05T02:50:00.317Z,0.0
2022-10-05T02:55:00.293Z,0.0
2022-10-05T03:00:00.357Z,0.0
2022-10-05T03:05:00.324Z,2.5
2022-10-05T03:10:01.665Z,3.2
2022-10-05T03:15:00.331Z,5.0
2022-10-05T03:20:00.365Z,3.6
2022-10-05T03:25:00.275Z,3.6
2022-10-05T03:30:00.317Z,7.6
2022-10-05T03:35:00.342Z,6.5
2022-10-05T03:40:00.341Z,10.1
2022-10-05T03:45:00.288Z,9.7
2022-10-05T03:50:00.339Z,4.3
2022-10-05T03:55:00.352Z,2.2
2022-10-05T04:00:00.372Z,7.9
2022-10-05T04:05:00.291Z,4.3
2022-10-05T04:10:00.327Z,7.6
2022-10-05T04:15:00.298Z,5.0
2022-10-05T04:20:00.349Z,6.5
2022-10-05T04:25:00.372Z,11.5
2022-10-05T04:30:00.625Z,5.0
2022-10-05T04:35:00.395Z,4.0
2022-10-05T04:40:00.385Z,6.1
2022-10-05T04:45:00.400Z,4.3
2022-10-05T04:50:00.392Z,4.3
2022-10-05T04:55:00.407Z,5.4
2022-10-05T05:00:00.451Z,0.0
2022-10-05T05:05:00.357Z,2.5
2022-10-05T05:10:00.421Z,5.8
2022-10-05T05:15:00.370Z,3.2
2022-10-05T05:20:00.384Z,5.0
2022-10-05T05:25:00.337Z,10.4
2022-10-05T05:30:00.382Z,7.9
2022-10-05T05:35:00.308Z,3.6
2022-10-05T05:40:00.305Z,4.3
2022-10-05T05:45:00.331Z,5.0
2022-10-05T05:50:08.009Z,7.2
2022-10-05T05:55:00.283Z,2.9
2022-10-05T06:00:00.364Z,7.2
2022-10-05T06:05:00.278Z,5.8
2022-10-05T06:10:00.310Z,3.6
2022-10-05T06:15:01.975Z,14.4
2022-10-05T06:20:05.896Z,6.1
2022-10-05T06:25:00.304Z,9.7
2022-10-05T06:30:00.433Z,4.3
2022-10-05T06:35:00.368Z,14.4
2022-10-05T06:40:01.749Z,6.8
2022-10-05T06:45:00.302Z,5.8
2022-10-05T06:50:00.437Z,8.6
2022-10-05T06:55:00.299Z,6.5
2022-10-05T07:00:00.382Z,9.4
2022-10-05T07:05:00.327Z,7.6
2022-10-05T07:10:00.359Z,6.8
2022-10-05T07:15:00.363Z,10.1
2022-10-05T07:20:00.462Z,11.2
2022-10-05T07:25:00.424Z,9.7
2022-10-05T07:30:00.443Z,6.1
2022-10-05T07:35:00.354Z,10.8
2022-10-05T07:40:01.866Z,11.5
2022-10-05T07:45:00.376Z,11.5
2022-10-05T07:50:00.358Z,7.2
2022-10-05T07:55:00.303Z,15.5
2022-10-05T08:00:00.405Z,15.5
2022-10-05T08:05:00.326Z,12.6
2022-10-05T08:10:00.328Z,13.0
2022-10-05T08:15:00.306Z,13.0
2022-10-05T08:20:00.495Z,10.4
2022-10-05T08:25:00.413Z,10.8
2022-10-05T08:30:00.324Z,8.6
2022-10-05T08:35:00.338Z,7.6
2022-10-05T08:40:00.304Z,9.7
2022-10-05T08:45:00.336Z,10.1
2022-10-05T08:50:00.401Z,10.8
2022-10-05T08:55:00.330Z,11.9
2022-10-05T09:00:00.382Z,14.0
2022-10-05T09:05:00.339Z,12.6
2022-10-05T09:10:02.294Z,8.6
2022-10-05T09:15:25.665Z,11.9
2022-10-05T09:20:00.441Z,11.5
2022-10-05T09:25:00.390Z,10.8
2022-10-05T09:30:00.380Z,16.6
2022-10-05T09:35:00.319Z,20.5
2022-10-05T09:40:03.355Z,6.8
2022-10-05T09:45:00.312Z,3.6
2022-10-05T09:50:00.474Z,5.0
2022-10-05T09:55:00.308Z,17.3
2022-10-05T10:00:00.550Z,14.4
2022-10-05T10:05:00.321Z,14.0
2022-10-05T10:10:00.301Z,11.5
2022-10-05T10:15:03.347Z,15.1
2022-10-05T10:20:00.414Z,7.9
2022-10-05T10:25:00.320Z,15.5
2022-10-05T10:30:00.327Z,11.5
2022-10-05T10:35:00.325Z,18.4
2022-10-05T10:40:00.326Z,18.4
2022-10-05T10:45:00.299Z,8.6
2022-10-05T10:50:00.342Z,13.3
2022-10-05T10:55:00.320Z,10.4
2022-10-05T11:00:00.347Z,14.4
2022-10-05T11:05:00.313Z,14.4
2022-10-05T11:10:00.319Z,13.3
2022-10-05T11:15:00.307Z,14.8
2022-10-05T11:20:06.411Z,14.8
2022-10-05T11:25:00.313Z,16.2
2022-10-05T11:30:00.349Z,19.1
2022-10-05T11:35:00.326Z,15.5
2022-10-05T11:40:00.338Z,14.4
2022-10-05T11:45:00.343Z,6.1
2022-10-05T11:50:00.339Z,19.4
2022-10-05T11:55:12.400Z,14.4
2022-10-05T12:00:00.365Z,10.4
2022-10-05T12:05:00.313Z,14.8
2022-10-05T12:10:00.335Z,19.8
2022-10-05T12:15:00.321Z,15.1
2022-10-05T12:20:00.322Z,7.6
2022-10-05T12:25:00.319Z,16.2
2022-10-05T12:30:00.335Z,16.9
2022-10-05T12:35:02.409Z,14.4
2022-10-05T12:40:00.306Z,9.4
2022-10-05T12:45:00.494Z,13.3
2022-10-05T12:50:00.335Z,10.8
2022-10-05T12:55:00.317Z,11.2
2022-10-05T13:00:00.461Z,18.4
2022-10-05T13:05:00.321Z,12.2
2022-10-05T13:10:00.324Z,22.0
2022-10-05T13:15:00.431Z,19.8
2022-10-05T13:20:00.588Z,16.2
2022-10-05T13:25:00.309Z,25.2
2022-10-05T13:30:00.385Z,15.5
2022-10-05T13:35:00.292Z,19.1
2022-10-05T13:40:00.650Z,13.0
2022-10-05T13:45:00.307Z,10.8
2022-10-05T13:50:00.767Z,15.8
2022-10-05T13:55:00.392Z,18.4
2022-10-05T14:00:00.542Z,16.9
2022-10-05T14:05:00.285Z,16.9
2022-10-05T14:10:00.472Z,19.8
2022-10-05T14:15:00.318Z,16.9
2022-10-05T14:20:00.350Z,21.6
2022-10-05T14:25:00.279Z,20.5
2022-10-05T14:30:00.326Z,20.5
2022-10-05T14:35:00.300Z,16.9
2022-10-05T14:40:00.349Z,16.2
2022-10-05T14:45:00.342Z,30.2
2022-10-05T14:50:00.320Z,18.7
2022-10-05T14:55:00.277Z,20.5
2022-10-05T15:00:00.346Z,14.4
2022-10-05T15:05:00.372Z,13.7
2022-10-05T15:10:00.317Z,20.2
2022-10-05T15:15:00.342Z,11.9
2022-10-05T15:20:00.345Z,5.0
2022-10-05T15:25:00.304Z,10.4
2022-10-05T15:30:00.362Z,16.6
2022-10-05T15:35:00.387Z,16.2
2022-10-05T15:40:00.344Z,13.7
2022-10-05T15:45:00.323Z,20.9
2022-10-05T15:50:00.325Z,17.3
2022-10-05T15:55:00.320Z,8.3
2022-10-05T16:00:00.353Z,23.8
2022-10-05T16:05:05.197Z,16.9
2022-10-05T16:10:00.297Z,5.0
2022-10-05T16:15:00.379Z,10.4
2022-10-05T16:20:00.399Z,18.7
2022-10-05T16:25:00.318Z,10.8
2022-10-05T16:30:00.349Z,15.8
2022-10-05T16:35:00.305Z,5.0
2022-10-05T16:40:00.314Z,3.2
2022-10-05T16:45:00.336Z,6.1
2022-10-05T16:50:00.347Z,9.7
2022-10-05T16:55:00.366Z,10.1
2022-10-05T17:00:00.363Z,7.2
2022-10-05T17:05:00.338Z,4.7
2022-10-05T17:10:00.362Z,6.8
2022-10-05T17:15:00.489Z,4.0
2022-10-05T17:20:00.334Z,5.0
2022-10-05T17:25:00.289Z,3.6
2022-10-05T17:30:00.414Z,6.1
2022-10-05T17:35:00.315Z,4.0
2022-10-05T17:40:00.392Z,1.4
2022-10-05T17:45:00.315Z,5.4
2022-10-05T17:50:00.345Z,3.6
2022-10-05T17:55:00.427Z,0.0
2022-10-05T18:00:00.699Z,0.0
2022-10-05T18:05:00.331Z,2.5
2022-10-05T18:10:00.730Z,0.0
2022-10-05T18:15:00.362Z,2.5
2022-10-05T18:20:00.320Z,2.2
2022-10-05T18:25:00.319Z,1.8
2022-10-05T18:30:00.338Z,2.2
2022-10-05T18:40:00.366Z,0.0
2022-10-05T18:45:00.291Z,0.0
2022-10-05T18:50:00.413Z,0.0
2022-10-05T18:55:00.311Z,2.2
2022-10-05T19:00:00.387Z,1.1
2022-10-05T19:05:00.301Z,4.0
2022-10-05T19:10:00.337Z,0.0
2022-10-05T19:15:00.328Z,3.6
2022-10-05T19:20:00.342Z,2.5
2022-10-05T19:25:00.388Z,2.2
2022-10-05T19:30:00.347Z,1.8
2022-10-05T19:35:00.288Z,1.8
2022-10-05T19:40:09.908Z,2.9
2022-10-05T19:45:00.323Z,2.5
2022-10-05T19:50:00.482Z,2.2
2022-10-05T19:55:00.303Z,2.5
2022-10-05T20:00:00.360Z,2.5
2022-10-05T20:05:00.294Z,4.7
2022-10-05T20:10:00.324Z,2.2
2022-10-05T20:15:00.429Z,5.0
2022-10-05T20:20:00.320Z,7.2
2022-10-05T20:25:00.361Z,6.5
2022-10-05T20:30:00.330Z,11.2
2022-10-05T20:35:00.287Z,5.0
2022-10-05T20:40:00.404Z,7.9
2022-10-05T20:45:00.312Z,11.9
2022-10-05T20:50:00.313Z,14.8
2022-10-05T20:55:00.351Z,12.2
2022-10-05T21:00:00.350Z,6.8
2022-10-05T21:05:00.524Z,11.5
2022-10-05T21:10:00.323Z,12.2
2022-10-05T21:15:00.308Z,12.2
2022-10-05T21:20:00.353Z,7.6
2022-10-05T21:25:00.345Z,8.3
2022-10-05T21:30:00.362Z,4.3
2022-10-05T21:35:00.313Z,11.9
2022-10-05T21:40:00.353Z,11.5
2022-10-05T21:45:00.293Z,6.5
2022-10-05T21:50:00.309Z,5.8
2022-10-05T21:55:00.312Z,6.8
2022-10-05T22:00:00.402Z,10.4
2022-10-05T22:05:00.287Z,7.9
2022-10-05T22:10:00.317Z,6.1
2022-10-05T22:15:00.305Z,8.3
2022-10-05T22:20:00.330Z,6.1
2022-10-05T22:25:00.344Z,5.0
2022-10-05T22:30:00.337Z,11.2
2022-10-05T22:35:00.430Z,5.0
2022-10-05T22:40:00.323Z,7.2
2022-10-05T22:45:00.314Z,7.2
2022-10-05T22:50:00.297Z,3.6
2022-10-05T22:55:00.316Z,5.8
2022-10-05T23:00:00.352Z,10.1
2022-10-05T23:05:00.297Z,3.2
2022-10-05T23:10:00.313Z,1.8
2022-10-05T23:15:00.299Z,12.2
2022-10-05T23:20:00.308Z,7.2
2022-10-05T23:25:00.307Z,10.4
2022-10-05T23:30:00.385Z,3.6
2022-10-05T23:35:00.313Z,6.1
2022-10-05T23:40:00.361Z,2.9
2022-10-05T23:45:00.331Z,7.9
2022-10-05T23:50:00.314Z,7.6
2022-10-05T23:55:00.308Z,4.0
